createdAt,value
2023-03-16T00:02:14.955Z,5.38
2023-03-16T00:04:41.877Z,5.57
2023-03-16T00:07:12.068Z,5.38
2023-03-16T00:09:43.049Z,4.45
2023-03-16T00:12:16.043Z,6.55
2023-03-16T00:14:44.685Z,4.60
2023-03-16T00:17:20.478Z,5.85
2023-03-16T00:19:55.797Z,6.18
2023-03-16T00:22:24.526Z,8.75
2023-03-16T00:24:52.977Z,6.00
2023-03-16T00:27:22.910Z,5.95
2023-03-16T00:29:56.134Z,7.38
2023-03-16T00:32:29.903Z,8.60
2023-03-16T00:34:58.008Z,7.57
2023-03-16T00:37:26.756Z,6.60
2023-03-16T00:39:58.027Z,7.00
2023-03-16T00:42:27.762Z,6.85
2023-03-16T00:44:57.776Z,7.70
2023-03-16T00:47:26.889Z,11.35
2023-03-16T00:49:54.000Z,8.88
2023-03-16T00:52:22.258Z,11.13
2023-03-16T00:54:49.156Z,9.05
2023-03-16T00:57:21.607Z,9.18
2023-03-16T00:59:48.993Z,10.23
2023-03-16T01:02:19.326Z,9.75
2023-03-16T01:04:46.148Z,11.10
2023-03-16T01:07:14.666Z,10.98
2023-03-16T01:09:42.472Z,9.98
2023-03-16T01:12:14.772Z,10.40
2023-03-16T01:14:42.596Z,10.38
2023-03-16T01:17:10.478Z,11.23
2023-03-16T01:19:37.958Z,12.77
2023-03-16T01:22:06.809Z,14.55
2023-03-16T01:24:34.822Z,9.77
2023-03-16T01:27:02.185Z,11.75
2023-03-16T01:29:29.888Z,10.10
2023-03-16T01:31:59.156Z,12.10
2023-03-16T01:34:26.200Z,11.30
2023-03-16T01:36:53.310Z,11.90
2023-03-16T01:39:30.040Z,10.95
2023-03-16T01:41:56.959Z,11.35
2023-03-16T01:44:32.744Z,12.07
2023-03-16T01:47:04.609Z,10.02
2023-03-16T01:49:36.211Z,11.32
2023-03-16T01:52:12.841Z,13.52
2023-03-16T01:54:56.035Z,13.30
2023-03-16T01:57:29.277Z,13.23
2023-03-16T02:00:19.154Z,12.82
2023-03-16T02:03:10.465Z,12.27
2023-03-16T02:06:01.119Z,14.55
2023-03-16T02:08:31.651Z,13.85
2023-03-16T02:10:59.361Z,14.50
2023-03-16T02:13:38.097Z,12.60
2023-03-16T02:16:08.513Z,13.20
2023-03-16T02:18:36.394Z,13.15
2023-03-16T02:21:26.221Z,13.20
2023-03-16T02:23:54.564Z,13.73
2023-03-16T02:26:40.128Z,14.25
2023-03-16T02:29:25.866Z,14.93
2023-03-16T02:31:54.537Z,17.73
2023-03-16T02:34:21.425Z,13.07
2023-03-16T02:36:52.354Z,14.45
2023-03-16T02:39:23.697Z,13.25
2023-03-16T02:41:51.054Z,14.60
2023-03-16T02:44:36.361Z,17.00
2023-03-16T02:47:13.264Z,14.35
2023-03-16T02:49:45.277Z,17.80
2023-03-16T02:52:12.566Z,14.60
2023-03-16T02:54:39.636Z,15.45
2023-03-16T02:57:06.434Z,14.55
2023-03-16T02:59:34.434Z,16.65
2023-03-16T03:02:01.534Z,13.40
2023-03-16T03:04:28.348Z,14.55
2023-03-16T03:06:55.327Z,14.85
2023-03-16T03:09:22.245Z,17.77
2023-03-16T03:11:53.266Z,16.10
2023-03-16T03:14:21.575Z,15.25
2023-03-16T03:16:50.009Z,14.00
2023-03-16T03:19:16.773Z,15.73
2023-03-16T03:21:43.776Z,15.30
2023-03-16T03:24:10.986Z,15.52
2023-03-16T03:26:38.278Z,15.60
2023-03-16T03:29:08.829Z,12.38
2023-03-16T03:31:36.029Z,15.68
2023-03-16T03:34:06.675Z,15.73
2023-03-16T03:36:35.698Z,14.40
2023-03-16T03:39:05.230Z,18.80
2023-03-16T03:41:34.256Z,16.55
2023-03-16T03:44:04.116Z,17.83
2023-03-16T03:46:31.599Z,16.67
2023-03-16T03:49:03.711Z,15.20
2023-03-16T03:51:34.591Z,16.88
2023-03-16T03:54:04.906Z,14.35
2023-03-16T03:56:46.099Z,14.98
2023-03-16T03:59:15.989Z,16.45
2023-03-16T04:02:16.023Z,17.98
2023-03-16T04:07:15.903Z,15.45
2023-03-16T04:09:47.519Z,15.73
2023-03-16T04:12:30.037Z,16.20
2023-03-16T04:14:57.014Z,16.70
2023-03-16T04:17:26.166Z,14.30
2023-03-16T04:19:58.900Z,14.43
2023-03-16T04:22:25.705Z,18.23
2023-03-16T04:24:52.826Z,16.83
2023-03-16T04:27:21.245Z,17.65
2023-03-16T04:29:48.045Z,21.02
2023-03-16T04:32:15.335Z,16.42
2023-03-16T04:34:43.946Z,16.00
2023-03-16T04:37:13.549Z,17.52
2023-03-16T04:39:42.962Z,17.33
2023-03-16T04:42:10.247Z,18.63
2023-03-16T04:44:44.305Z,20.40
2023-03-16T04:47:16.066Z,15.98
2023-03-16T04:49:44.319Z,19.02
2023-03-16T04:52:11.603Z,19.25
2023-03-16T04:54:38.571Z,17.30
2023-03-16T04:57:05.952Z,19.52
2023-03-16T04:59:43.876Z,19.55
2023-03-16T05:02:20.139Z,19.63
2023-03-16T05:04:49.277Z,21.50
2023-03-16T05:07:17.349Z,19.90
2023-03-16T05:09:49.070Z,25.17
2023-03-16T05:12:34.651Z,20.63
2023-03-16T05:15:05.882Z,20.63
2023-03-16T05:17:40.071Z,24.58
2023-03-16T05:20:08.419Z,20.13
2023-03-16T05:22:42.857Z,20.20
2023-03-16T05:25:16.381Z,19.75
2023-03-16T05:27:50.445Z,19.10
2023-03-16T05:30:24.757Z,19.55
2023-03-16T05:32:54.858Z,16.65
2023-03-16T05:35:24.116Z,23.00
2023-03-16T05:37:53.565Z,19.50
2023-03-16T05:40:23.074Z,17.50
2023-03-16T05:43:04.453Z,28.77
2023-03-16T05:45:34.693Z,18.75
2023-03-16T05:48:08.319Z,19.35
2023-03-16T05:50:41.625Z,19.23
2023-03-16T05:53:09.447Z,16.20
2023-03-16T05:55:38.335Z,17.05
2023-03-16T05:58:08.766Z,15.43
2023-03-16T06:00:39.494Z,17.75
2023-03-16T06:03:22.727Z,13.90
2023-03-16T06:05:50.562Z,15.45
2023-03-16T06:08:24.048Z,15.60
2023-03-16T06:10:52.059Z,13.98
2023-03-16T06:13:21.553Z,16.85
2023-03-16T06:15:49.358Z,18.27
2023-03-16T06:18:16.342Z,15.52
2023-03-16T06:20:47.184Z,15.30
2023-03-16T06:23:14.774Z,13.95
2023-03-16T06:25:41.870Z,18.20
2023-03-16T06:28:09.642Z,14.10
2023-03-16T06:30:36.416Z,14.43
2023-03-16T06:33:03.302Z,16.13
2023-03-16T06:35:30.180Z,12.63
2023-03-16T06:38:18.155Z,14.38
2023-03-16T06:41:01.788Z,15.07
2023-03-16T06:43:29.582Z,12.85
2023-03-16T06:45:56.404Z,12.18
2023-03-16T06:48:23.216Z,11.98
2023-03-16T06:50:50.312Z,15.30
2023-03-16T06:53:22.876Z,14.00
2023-03-16T06:55:50.086Z,12.25
2023-03-16T06:58:17.264Z,12.68
2023-03-16T07:00:45.155Z,9.95
2023-03-16T07:03:12.788Z,9.75
2023-03-16T07:05:46.644Z,10.77
2023-03-16T07:08:15.382Z,11.07
2023-03-16T07:10:42.791Z,12.23
2023-03-16T07:13:09.591Z,11.07
2023-03-16T07:15:36.489Z,11.65
2023-03-16T07:18:05.476Z,10.93
2023-03-16T07:20:33.126Z,10.55
2023-03-16T07:23:04.727Z,10.07
2023-03-16T07:25:32.132Z,9.38
2023-03-16T07:27:59.992Z,9.63
2023-03-16T07:30:32.817Z,11.23
2023-03-16T07:32:59.935Z,12.13
2023-03-16T07:35:27.473Z,8.75
2023-03-16T07:37:55.397Z,14.32
2023-03-16T07:40:24.159Z,11.50
2023-03-16T07:42:51.512Z,8.48
2023-03-16T07:45:34.491Z,9.77
2023-03-16T07:48:03.978Z,9.65
2023-03-16T07:50:38.998Z,8.82
2023-03-16T07:53:06.107Z,10.70
2023-03-16T07:55:36.913Z,9.55
2023-03-16T07:58:06.205Z,12.30
2023-03-16T08:00:38.207Z,8.45
2023-03-16T08:03:05.586Z,7.78
2023-03-16T08:05:33.099Z,14.65
2023-03-16T08:08:02.162Z,13.18
2023-03-16T08:10:31.939Z,12.45
2023-03-16T08:13:05.929Z,15.07
2023-03-16T08:15:35.096Z,17.23
2023-03-16T08:18:10.217Z,13.38
2023-03-16T08:20:37.022Z,14.15
2023-03-16T08:23:03.853Z,17.35
2023-03-16T08:25:37.743Z,14.02
2023-03-16T08:28:12.769Z,14.68
2023-03-16T08:30:49.457Z,14.32
2023-03-16T08:33:27.987Z,9.88
2023-03-16T08:35:56.089Z,12.45
2023-03-16T08:38:23.149Z,12.60
2023-03-16T08:40:52.222Z,10.10
2023-03-16T08:43:21.484Z,10.50
2023-03-16T08:45:49.503Z,13.88
2023-03-16T08:48:18.436Z,10.15
2023-03-16T08:50:48.999Z,11.75
2023-03-16T08:53:15.841Z,15.10
2023-03-16T08:55:43.098Z,13.95
2023-03-16T08:58:12.204Z,12.10
2023-03-16T09:00:40.396Z,14.13
2023-03-16T09:03:07.632Z,9.32
2023-03-16T09:05:34.803Z,11.63
2023-03-16T09:08:01.925Z,10.77
2023-03-16T09:10:29.117Z,13.43
2023-03-16T09:12:56.795Z,11.45
2023-03-16T09:15:23.702Z,13.35
2023-03-16T09:17:50.578Z,11.07
2023-03-16T09:20:22.822Z,17.75
2023-03-16T09:23:01.813Z,9.35
2023-03-16T09:25:28.907Z,11.98
2023-03-16T09:27:55.858Z,11.40
2023-03-16T09:30:22.719Z,10.73
2023-03-16T09:32:50.531Z,9.52
2023-03-16T09:35:18.102Z,10.00
2023-03-16T09:38:01.074Z,10.40
2023-03-16T09:40:33.491Z,9.35
2023-03-16T09:43:03.775Z,13.63
2023-03-16T09:46:08.433Z,13.65
2023-03-16T09:51:08.318Z,9.38
2023-03-16T09:53:39.414Z,12.25
2023-03-16T09:56:15.822Z,11.07
2023-03-16T09:58:42.798Z,11.05
2023-03-16T10:01:35.836Z,13.80
2023-03-16T10:04:08.658Z,9.90
2023-03-16T10:06:48.303Z,10.50
2023-03-16T10:09:36.096Z,9.13
2023-03-16T10:12:06.297Z,10.52
2023-03-16T10:14:48.044Z,10.85
2023-03-16T10:17:19.162Z,13.38
2023-03-16T10:20:10.939Z,9.68
2023-03-16T10:22:42.864Z,10.98
2023-03-16T10:25:29.664Z,7.57
2023-03-16T10:27:57.477Z,7.22
2023-03-16T10:30:33.000Z,6.90
2023-03-16T10:33:30.080Z,6.57
2023-03-16T10:36:19.378Z,5.15
2023-03-16T10:38:58.293Z,6.38
2023-03-16T10:41:32.700Z,6.68
2023-03-16T10:44:17.818Z,6.88
2023-03-16T10:46:48.753Z,8.27
2023-03-16T10:49:36.377Z,5.35
2023-03-16T10:52:14.254Z,7.82
2023-03-16T10:54:47.898Z,7.15
2023-03-16T10:57:31.395Z,4.90
2023-03-16T11:02:49.765Z,6.57
2023-03-16T11:05:19.375Z,5.82
2023-03-16T11:08:12.325Z,3.85
2023-03-16T11:10:54.764Z,4.28
2023-03-16T11:13:24.708Z,9.45
2023-03-16T11:16:02.880Z,10.38
2023-03-16T11:18:39.209Z,6.78
2023-03-16T11:21:21.106Z,4.68
2023-03-16T11:23:52.765Z,8.60
2023-03-16T11:26:34.542Z,5.60
2023-03-16T11:29:11.212Z,6.45
2023-03-16T11:31:49.578Z,6.22
2023-03-16T11:34:24.036Z,7.20
2023-03-16T11:36:57.181Z,8.48
2023-03-16T11:39:56.530Z,11.88
2023-03-16T11:42:29.173Z,6.82
2023-03-16T11:45:23.002Z,8.40
2023-03-16T11:50:33.833Z,5.18
2023-03-16T11:53:05.014Z,5.82
2023-03-16T11:55:53.148Z,5.55
2023-03-16T11:58:46.357Z,9.68
2023-03-16T12:01:50.553Z,5.55
2023-03-16T12:04:36.924Z,5.43
2023-03-16T12:07:03.574Z,5.22
2023-03-16T12:10:03.032Z,5.63
2023-03-16T12:13:01.966Z,5.63
2023-03-16T12:15:50.005Z,8.90
2023-03-16T12:18:24.692Z,3.88
2023-03-16T12:21:01.686Z,5.53
2023-03-16T12:23:36.034Z,4.53
2023-03-16T12:26:03.911Z,5.55
2023-03-16T12:28:33.421Z,6.85
2023-03-16T12:31:11.244Z,4.70
2023-03-16T12:33:59.611Z,6.32
2023-03-16T12:36:57.823Z,4.30
2023-03-16T12:39:50.243Z,7.57
2023-03-16T12:42:45.971Z,5.70
2023-03-16T12:45:16.632Z,4.25
2023-03-16T12:47:48.180Z,5.82
2023-03-16T12:50:18.794Z,4.95
2023-03-16T12:52:51.332Z,4.00
2023-03-16T12:55:27.893Z,5.90
2023-03-16T12:58:05.082Z,6.60
2023-03-16T13:00:42.684Z,5.60
2023-03-16T13:03:16.609Z,3.88
2023-03-16T13:05:51.971Z,5.63
2023-03-16T13:08:21.267Z,3.90
2023-03-16T13:11:09.682Z,6.75
2023-03-16T13:13:52.629Z,4.10
2023-03-16T13:16:32.292Z,3.88
2023-03-16T13:18:59.552Z,4.85
2023-03-16T13:21:37.297Z,4.70
2023-03-16T13:24:15.798Z,2.72
2023-03-16T13:26:52.244Z,4.22
2023-03-16T13:29:25.680Z,3.90
2023-03-16T13:31:54.664Z,6.10
2023-03-16T13:34:31.973Z,3.38
2023-03-16T13:37:01.775Z,4.25
2023-03-16T13:39:31.556Z,4.35
2023-03-16T13:42:14.135Z,4.13
2023-03-16T13:44:42.521Z,4.30
2023-03-16T13:47:17.153Z,5.22
2023-03-16T13:49:47.403Z,3.25
2023-03-16T13:52:21.004Z,3.53
2023-03-16T13:54:49.094Z,6.15
2023-03-16T13:57:18.936Z,4.93
2023-03-16T13:59:46.375Z,4.90
2023-03-16T14:02:25.090Z,6.22
2023-03-16T14:04:51.895Z,6.38
2023-03-16T14:07:20.886Z,3.95
2023-03-16T14:09:49.875Z,4.85
2023-03-16T14:12:18.912Z,6.50
2023-03-16T14:14:50.761Z,5.63
2023-03-16T14:17:20.769Z,5.47
2023-03-16T14:20:00.067Z,5.22
2023-03-16T14:22:38.131Z,5.90
2023-03-16T14:25:06.757Z,6.35
2023-03-16T14:27:45.102Z,6.82
2023-03-16T14:30:15.171Z,6.25
2023-03-16T14:32:42.422Z,4.30
2023-03-16T14:35:14.789Z,5.50
2023-03-16T14:37:42.414Z,4.32
2023-03-16T14:40:25.412Z,6.05
2023-03-16T14:42:54.774Z,4.60
2023-03-16T14:45:22.070Z,5.85
2023-03-16T14:47:50.632Z,5.20
2023-03-16T14:50:25.918Z,6.55
2023-03-16T14:52:55.956Z,4.30
2023-03-16T14:55:24.080Z,4.85
2023-03-16T14:57:51.503Z,5.95
2023-03-16T15:00:20.088Z,5.15
2023-03-16T15:02:59.914Z,8.68
2023-03-16T15:05:48.578Z,5.53
2023-03-16T15:08:31.472Z,6.55
2023-03-16T15:11:05.876Z,5.10
2023-03-16T15:13:42.135Z,5.68
2023-03-16T15:16:14.123Z,6.47
2023-03-16T15:18:42.685Z,6.68
2023-03-16T15:21:25.038Z,6.55
2023-03-16T15:23:52.259Z,7.32
2023-03-16T15:26:26.328Z,5.00
2023-03-16T15:28:53.690Z,6.10
2023-03-16T15:31:20.862Z,4.57
2023-03-16T15:33:47.846Z,6.47
2023-03-16T15:36:18.246Z,9.25
2023-03-16T15:38:50.363Z,6.55
2023-03-16T15:41:17.777Z,6.75
2023-03-16T15:43:45.818Z,5.70
2023-03-16T15:46:13.377Z,9.10
2023-03-16T15:48:40.358Z,7.95
2023-03-16T15:51:14.535Z,5.78
2023-03-16T15:53:50.245Z,5.47
2023-03-16T15:56:22.802Z,6.68
2023-03-16T15:58:50.774Z,6.95
2023-03-16T16:01:37.792Z,7.43
2023-03-16T16:04:07.037Z,5.30
2023-03-16T16:06:33.912Z,4.72
2023-03-16T16:09:01.075Z,5.68
2023-03-16T16:11:28.350Z,4.07
2023-03-16T16:13:59.447Z,5.38
2023-03-16T16:16:31.184Z,6.53
2023-03-16T16:18:58.298Z,6.15
2023-03-16T16:21:32.605Z,4.90
2023-03-16T16:24:01.326Z,6.43
2023-03-16T16:26:49.004Z,4.00
2023-03-16T16:29:36.751Z,5.28
2023-03-16T16:32:03.802Z,4.38
2023-03-16T16:34:31.223Z,4.60
2023-03-16T16:36:58.371Z,5.57
2023-03-16T16:39:25.637Z,7.72
2023-03-16T16:41:55.033Z,5.97
2023-03-16T16:44:27.318Z,7.25
2023-03-16T16:46:55.526Z,9.30
2023-03-16T16:49:25.972Z,8.10
2023-03-16T16:51:54.513Z,9.48
2023-03-16T16:54:27.728Z,10.98
2023-03-16T16:56:56.360Z,10.23
2023-03-16T16:59:36.945Z,9.93
2023-03-16T17:02:22.577Z,9.85
2023-03-16T17:04:50.914Z,12.00
2023-03-16T17:07:18.124Z,10.70
2023-03-16T17:09:45.163Z,9.77
2023-03-16T17:12:21.785Z,8.15
2023-03-16T17:14:49.996Z,10.18
2023-03-16T17:17:18.152Z,8.45
2023-03-16T17:19:47.002Z,8.23
2023-03-16T17:22:28.605Z,5.88
2023-03-16T17:24:55.758Z,7.65
2023-03-16T17:27:29.364Z,12.52
2023-03-16T17:29:57.752Z,6.00
2023-03-16T17:32:25.146Z,7.82
2023-03-16T17:34:52.341Z,8.30
2023-03-16T17:37:22.204Z,6.68
2023-03-16T17:39:49.233Z,8.40
2023-03-16T17:42:18.650Z,7.70
2023-03-16T17:44:51.319Z,6.22
2023-03-16T17:47:26.566Z,7.72
2023-03-16T17:49:54.081Z,7.03
2023-03-16T17:52:26.263Z,6.28
2023-03-16T17:54:54.482Z,7.93
2023-03-16T17:57:30.424Z,8.05
2023-03-16T17:59:58.385Z,11.63
2023-03-16T18:02:50.164Z,10.98
2023-03-16T18:05:21.077Z,7.07
2023-03-16T18:07:48.448Z,7.40
2023-03-16T18:10:17.988Z,8.95
2023-03-16T18:12:46.443Z,8.18
2023-03-16T18:15:20.946Z,10.15
2023-03-16T18:17:48.491Z,9.98
2023-03-16T18:20:22.860Z,13.13
2023-03-16T18:22:50.359Z,9.38
2023-03-16T18:25:36.250Z,8.68
2023-03-16T18:28:03.110Z,11.48
2023-03-16T18:30:30.884Z,15.02
2023-03-16T18:32:59.329Z,11.05
2023-03-16T18:35:26.288Z,12.98
2023-03-16T18:37:56.248Z,14.23
2023-03-16T18:40:24.702Z,9.63
2023-03-16T18:42:53.944Z,6.65
2023-03-16T18:45:21.163Z,10.27
2023-03-16T18:47:52.076Z,10.40
2023-03-16T18:50:27.578Z,9.68
2023-03-16T18:52:55.478Z,15.13
2023-03-16T18:55:24.600Z,13.18
2023-03-16T18:57:52.867Z,11.93
2023-03-16T19:00:24.660Z,12.27
2023-03-16T19:02:55.509Z,10.98
2023-03-16T19:05:30.328Z,14.75
2023-03-16T19:07:57.302Z,14.25
2023-03-16T19:10:37.886Z,13.80
2023-03-16T19:13:09.873Z,14.20
2023-03-16T19:15:36.721Z,17.63
2023-03-16T19:18:03.633Z,18.40
2023-03-16T19:20:32.649Z,15.43
2023-03-16T19:23:07.191Z,13.07
2023-03-16T19:25:39.887Z,12.32
2023-03-16T19:28:12.362Z,15.18
2023-03-16T19:30:39.565Z,13.53
2023-03-16T19:33:18.580Z,13.40
2023-03-16T19:35:51.793Z,14.93
2023-03-16T19:38:19.886Z,13.88
2023-03-16T19:40:49.616Z,12.93
2023-03-16T19:43:18.766Z,15.40
2023-03-16T19:45:46.909Z,10.95
2023-03-16T19:48:22.778Z,13.32
2023-03-16T19:50:51.046Z,14.77
2023-03-16T19:53:20.724Z,12.35
2023-03-16T19:55:49.275Z,13.05
2023-03-16T19:58:43.440Z,17.90
2023-03-16T20:01:23.556Z,17.17
2023-03-16T20:03:51.696Z,17.50
2023-03-16T20:06:21.082Z,13.95
2023-03-16T20:08:48.646Z,14.95
2023-03-16T20:11:30.960Z,15.70
2023-03-16T20:13:58.841Z,17.50
2023-03-16T20:16:33.975Z,16.77
2023-03-16T20:19:05.425Z,12.77
2023-03-16T20:21:32.708Z,18.30
2023-03-16T20:23:59.630Z,15.63
2023-03-16T20:26:33.491Z,16.60
2023-03-16T20:29:01.567Z,15.85
2023-03-16T20:31:31.520Z,19.08
2023-03-16T20:33:59.100Z,13.32
2023-03-16T20:36:26.798Z,57.97
2023-03-16T20:38:53.656Z,18.60
2023-03-16T20:41:28.073Z,17.83
2023-03-16T20:43:56.958Z,17.52
2023-03-16T20:46:27.463Z,12.77
2023-03-16T20:48:54.731Z,14.23
2023-03-16T20:51:21.760Z,15.15
2023-03-16T20:53:49.108Z,14.63
2023-03-16T20:56:25.982Z,14.98
2023-03-16T20:58:55.679Z,16.00
2023-03-16T21:01:24.649Z,9.15
2023-03-16T21:03:55.383Z,16.85
2023-03-16T21:06:30.010Z,12.52
2023-03-16T21:08:59.520Z,17.95
2023-03-16T21:11:36.000Z,13.25
2023-03-16T21:14:04.987Z,16.83
2023-03-16T21:16:32.210Z,18.98
2023-03-16T21:18:59.247Z,17.00
2023-03-16T21:21:26.180Z,21.13
2023-03-16T21:23:53.299Z,17.42
2023-03-16T21:26:23.201Z,20.63
2023-03-16T21:28:59.607Z,23.23
2023-03-16T21:31:27.151Z,18.10
2023-03-16T21:33:55.499Z,20.55
2023-03-16T21:36:26.298Z,15.23
2023-03-16T21:38:53.697Z,17.65
2023-03-16T21:41:21.163Z,14.80
2023-03-16T21:43:50.052Z,16.58
2023-03-16T21:46:22.362Z,14.70
2023-03-16T21:48:55.019Z,16.70
2023-03-16T21:51:32.219Z,19.55
2023-03-16T21:53:59.336Z,16.08
2023-03-16T21:56:26.598Z,16.75
2023-03-16T21:58:54.857Z,16.40
2023-03-16T22:01:33.009Z,18.30
2023-03-16T22:04:05.368Z,24.23
2023-03-16T22:06:32.590Z,18.30
2023-03-16T22:09:01.016Z,21.15
2023-03-16T22:11:30.143Z,18.17
2023-03-16T22:13:59.040Z,19.30
2023-03-16T22:16:30.081Z,20.13
2023-03-16T22:18:58.140Z,20.00
2023-03-16T22:21:37.540Z,16.23
2023-03-16T22:24:07.499Z,16.10
2023-03-16T22:26:34.456Z,17.92
2023-03-16T22:29:01.956Z,23.75
2023-03-16T22:31:33.628Z,30.80
2023-03-16T22:34:01.387Z,21.23
2023-03-16T22:36:28.391Z,21.20
2023-03-16T22:39:06.226Z,21.60
2023-03-16T22:41:33.570Z,23.17
2023-03-16T22:44:01.777Z,22.77
2023-03-16T22:46:29.514Z,21.95
2023-03-16T22:48:57.019Z,18.48
2023-03-16T22:51:29.626Z,21.70
2023-03-16T22:54:02.041Z,18.20
2023-03-16T22:56:31.410Z,15.77
2023-03-16T22:59:04.300Z,18.88
2023-03-16T23:01:38.460Z,18.45
2023-03-16T23:04:17.361Z,18.77
2023-03-16T23:06:49.740Z,17.88
2023-03-16T23:09:18.460Z,20.67
2023-03-16T23:11:47.268Z,21.65
2023-03-16T23:14:21.282Z,15.50
2023-03-16T23:16:49.422Z,18.42
2023-03-16T23:19:32.839Z,13.98
2023-03-16T23:22:06.943Z,14.27
2023-03-16T23:24:34.664Z,16.65
2023-03-16T23:27:01.886Z,13.07
2023-03-16T23:29:29.447Z,16.17
2023-03-16T23:31:56.657Z,16.35
2023-03-16T23:34:25.588Z,14.20
2023-03-16T23:36:52.729Z,13.70
2023-03-16T23:39:19.597Z,14.73
2023-03-16T23:41:48.328Z,13.82
2023-03-16T23:44:29.027Z,14.45
2023-03-16T23:46:59.654Z,16.05
2023-03-16T23:49:38.390Z,15.75
2023-03-16T23:52:05.553Z,13.35
2023-03-16T23:54:33.344Z,12.57
2023-03-16T23:57:00.320Z,16.00
2023-03-16T23:59:27.885Z,13.15
